YBMKYBRK

Guest
Details From YBMK - Mackay
To YBRK - Rockhampton
Flight Number -
Tags generated
Created
Modified
Stats Distance 153 nm / 284 km
Max Altitude 17,600 ft / 5,364 m
Waypoints 3
Social Downloads 0
Likes 0
Share VATSIM

Download

Looking for another format? Having issues loading an existing format? Contact us
Advertisement - Login to hide

Notes

Basic altitude profile: - Ascent Rate: 2500ft/min - Ascent Speed: 250kts - Cruise Altitude: 35000ft - Cruise Speed: 420kts - Descent Rate: 1500ft/min - Descent Speed: 250kts Options: - Use NATs: yes - Use PACOTS: yes - Use low airways: yes - Use high airways: yes

Route

YBMK PROBO YBRK

ID Type Via Altitude Latitude Longitude Leg Dist Tot Dist Heading (true) Name
O YBMK APT - 0 ft / 0 m -21.17161˚ 149.18113˚ - 0 nm - Mackay
PROBO FIX - 17,600 ft / 5,364 m -22.00889˚ 149.95111˚ 66 nm 66 nm 140° / 139° -
O YBRK APT - 0 ft / 0 m -23.37879˚ 150.47329˚ 87 nm 153 nm 161° / 161° Rockhampton

Altitude Profile

Advertisement - Login to hide

YBMK

Details ICAO YBMK (MKY)
Name Mackay
Region Australia
Timezone Australia/Brisbane (UTC+10.0)
Stats Elevation 18 ft / 5 m (AMSL)
Location -21.171614° 149.181130°
Runways 2
Magnetic Variation 8.382° E

METAR

YBMK 110900Z AUTO 11012KT 9999 // SCT024 26/20 Q1012

Decode

TAF

Not found

Departure Runways

ID Width Length Bearing (true) Bearing (mag) Surface Threshold Offset Overrun Length
05 98 ft / 30 m 4,411 ft / 1,344 m 57.80° 49.42° Asphalt 194 ft / 59 m 0 ft / 0 m
14 148 ft / 45 m 6,516 ft / 1,986 m 147.90° 139.52° Asphalt 0 ft / 0 m 0 ft / 0 m
23 98 ft / 30 m 4,411 ft / 1,344 m 237.80° 229.42° Asphalt 0 ft / 0 m 0 ft / 0 m
32 148 ft / 45 m 6,516 ft / 1,986 m 327.90° 319.52° Asphalt 0 ft / 0 m 0 ft / 0 m

YBRK

Details ICAO YBRK (ROK)
Name Rockhampton
Region Australia
Timezone Australia/Brisbane (UTC+10.0)
Stats Elevation 34 ft / 10 m (AMSL)
Location -23.378793° 150.473288°
Runways 2
Magnetic Variation 9.207° E

METAR

YBRK 110900Z AUTO 07007KT 9999 // NCD 25/19 Q1013

Decode

TAF

TAF YBRK 110530Z 1106/1206 09012KT 9999 -SHRA SCT045 FM110800 10010KT 9999 FEW030 FM111600 13007KT 9999 SCT020 FM112200 12010KT 9999 FEW035 FM120200 09009KT 9999 -SHRA SCT045

Decode

Destination Runways

ID Width Length Bearing (true) Bearing (mag) Surface Threshold Offset Overrun Length
04 102 ft / 31 m 5,395 ft / 1,644 m 52.34° 43.13° Asphalt 0 ft / 0 m 20 ft / 6 m
15 148 ft / 45 m 8,649 ft / 2,636 m 157.80° 148.59° Asphalt 0 ft / 0 m 0 ft / 0 m
22 102 ft / 31 m 5,395 ft / 1,644 m 232.34° 223.13° Asphalt 0 ft / 0 m 0 ft / 0 m
33 148 ft / 45 m 8,649 ft / 2,636 m 337.80° 328.59° Asphalt 0 ft / 0 m 0 ft / 0 m

Popular Alternatives